createdAt,value
2022-11-16T02:30:15.904Z,98641.38
2022-11-16T02:32:47.416Z,98637.88
2022-11-16T02:35:18.035Z,98640.91
2022-11-16T02:37:48.533Z,98629.47
2022-11-16T02:40:20.322Z,98633.44
2022-11-16T02:42:50.950Z,98623.28
2022-11-16T02:45:23.178Z,98614.28
2022-11-16T02:47:53.247Z,98613.56
2022-11-16T02:50:23.415Z,98614.13
2022-11-16T02:52:53.629Z,98610.63
2022-11-16T02:55:21.659Z,98602.63
2022-11-16T02:57:51.377Z,98612.63
2022-11-16T03:00:24.272Z,98616.97
2022-11-16T03:03:00.511Z,98609.34
2022-11-16T03:05:33.081Z,98609.38
2022-11-16T03:08:08.706Z,98604.84
2022-11-16T03:10:57.115Z,98614.84
2022-11-16T03:13:28.835Z,98607.44
2022-11-16T03:15:59.569Z,98604.28
2022-11-16T03:18:28.956Z,98606.44
2022-11-16T03:21:07.163Z,98596.16
2022-11-16T03:23:34.985Z,98597.97
2022-11-16T03:26:06.450Z,98590.38
2022-11-16T03:28:37.591Z,98589.53
2022-11-16T03:31:09.832Z,98577.38
2022-11-16T03:33:39.582Z,98566.81
2022-11-16T03:36:10.286Z,98563.84
2022-11-16T03:38:40.329Z,98563.28
2022-11-16T03:41:11.117Z,98566.16
2022-11-16T03:43:40.273Z,98554.56
2022-11-16T03:46:10.073Z,98552.25
2022-11-16T03:48:38.495Z,98555.25
2022-11-16T04:17:54.656Z,98582.47
2022-11-16T04:20:45.580Z,98577.00
2022-11-16T04:23:33.650Z,98585.34
2022-11-16T04:26:04.335Z,98581.38
2022-11-16T04:28:34.631Z,98576.38
2022-11-16T04:31:23.392Z,98586.13
2022-11-16T04:34:23.489Z,98590.38
2022-11-16T04:37:13.006Z,98591.53
2022-11-16T04:39:41.800Z,98591.53
2022-11-16T04:42:20.009Z,98600.78
2022-11-16T04:45:08.620Z,98600.22
2022-11-16T04:47:52.507Z,98605.94
2022-11-16T04:50:24.044Z,98615.31
2022-11-16T04:52:52.339Z,98627.69
2022-11-16T04:55:20.924Z,98628.94
2022-11-16T04:57:50.331Z,98630.28
2022-11-16T05:00:18.549Z,98623.03
2022-11-16T05:02:48.851Z,98616.75
2022-11-16T05:05:17.054Z,98624.56
2022-11-16T05:07:48.408Z,98622.38
2022-11-16T05:10:22.399Z,98623.59
2022-11-16T05:12:52.330Z,98633.03
2022-11-16T05:15:20.364Z,98632.63
2022-11-16T05:17:49.923Z,98625.78
2022-11-16T05:20:38.946Z,98627.41
2022-11-16T05:23:29.775Z,98620.72
2022-11-16T05:26:02.286Z,98633.97
2022-11-16T05:28:30.117Z,98629.47
2022-11-16T05:30:58.557Z,98632.22
2022-11-16T05:33:29.155Z,98626.19
2022-11-16T05:35:57.318Z,98632.78
2022-11-16T05:38:26.850Z,98630.84
2022-11-16T05:40:58.573Z,98627.03
2022-11-16T05:43:26.505Z,98615.16
2022-11-16T05:46:07.684Z,98625.56
2022-11-16T05:48:42.578Z,98626.50
2022-11-16T05:51:10.671Z,98634.00
2022-11-16T05:53:40.801Z,98632.47
2022-11-16T05:56:09.232Z,98633.19
2022-11-16T05:58:39.860Z,98637.41
2022-11-16T06:01:07.792Z,98640.13
2022-11-16T06:03:36.426Z,98645.34
2022-11-16T06:06:05.552Z,98646.69
2022-11-16T06:08:33.777Z,98649.44
2022-11-16T06:11:08.436Z,98646.69
2022-11-16T06:13:37.339Z,98648.91
2022-11-16T06:16:07.090Z,98644.41
2022-11-16T06:18:38.268Z,98647.00
2022-11-16T06:21:06.461Z,98645.22
2022-11-16T06:23:34.304Z,98651.34
2022-11-16T06:26:02.951Z,98652.00
2022-11-16T06:28:33.469Z,98653.53
2022-11-16T06:31:01.327Z,98658.56
2022-11-16T06:33:33.791Z,98661.19
2022-11-16T06:36:07.736Z,98657.50
2022-11-16T06:38:35.917Z,98664.34
2022-11-16T06:41:04.179Z,98667.22
2022-11-16T06:43:38.927Z,98673.09
2022-11-16T06:46:07.490Z,98670.78
2022-11-16T06:48:35.604Z,98675.19
2022-11-16T06:51:10.596Z,98678.03
2022-11-16T06:53:38.863Z,98673.09
2022-11-16T06:56:08.528Z,98669.28
2022-11-16T06:58:43.740Z,98677.06
2022-11-16T07:01:13.716Z,98682.25
2022-11-16T07:03:44.118Z,98678.97
2022-11-16T07:06:13.615Z,98670.63
2022-11-16T07:08:47.050Z,98682.53
2022-11-16T07:11:20.336Z,98689.38
2022-11-16T07:13:50.174Z,98687.16
2022-11-16T07:16:18.442Z,98691.13
2022-11-16T07:18:53.766Z,98686.63
2022-11-16T07:21:21.657Z,98688.56
2022-11-16T07:23:49.624Z,98690.19
2022-11-16T07:26:20.658Z,98696.22
2022-11-16T07:29:01.744Z,98693.34
2022-11-16T07:31:32.685Z,98699.59
2022-11-16T07:34:19.020Z,98701.78
2022-11-16T07:36:52.200Z,98697.81
2022-11-16T07:39:21.889Z,98689.09
2022-11-16T07:41:53.149Z,98689.38
2022-11-16T07:44:48.871Z,98696.34
2022-11-16T07:47:16.738Z,98700.03
2022-11-16T07:49:44.431Z,98695.94
2022-11-16T07:52:18.645Z,98693.88
2022-11-16T07:54:57.939Z,98699.78
2022-11-16T07:57:28.072Z,98704.97
2022-11-16T08:00:00.349Z,98714.53
2022-11-16T08:02:30.660Z,98728.19
2022-11-16T08:04:58.410Z,98728.09
2022-11-16T08:07:28.953Z,98735.94
2022-11-16T08:09:57.598Z,98738.78
2022-11-16T08:12:25.528Z,98746.06
2022-11-16T08:14:54.455Z,98746.28
2022-11-16T08:17:23.528Z,98756.66
2022-11-16T08:19:51.908Z,98764.13
2022-11-16T08:22:20.292Z,98766.00
2022-11-16T08:24:48.347Z,98767.59
2022-11-16T08:27:17.462Z,98767.13
2022-11-16T08:29:50.609Z,98772.72
2022-11-16T08:32:18.382Z,98780.09
2022-11-16T08:34:47.640Z,98777.09
2022-11-16T08:37:17.045Z,98787.06
2022-11-16T08:39:46.333Z,98791.88
2022-11-16T08:42:14.452Z,98786.38
2022-11-16T08:44:47.082Z,98800.09
2022-11-16T08:47:16.860Z,98801.84
2022-11-16T08:49:58.085Z,98805.94
2022-11-16T08:52:28.533Z,98807.13
2022-11-16T08:54:57.492Z,98809.00
2022-11-16T08:57:25.401Z,98820.63
2022-11-16T08:59:58.025Z,98827.41
2022-11-16T09:02:26.354Z,98827.72
2022-11-16T09:04:54.399Z,98825.19
2022-11-16T09:07:24.028Z,98827.59
2022-11-16T09:09:51.957Z,98827.19
2022-11-16T09:12:20.033Z,98836.41
2022-11-16T09:14:48.013Z,98842.63
2022-11-16T09:17:21.721Z,98850.16
2022-11-16T09:19:53.107Z,98848.69
2022-11-16T09:22:21.236Z,98846.38
2022-11-16T09:24:50.319Z,98845.94
2022-11-16T09:27:18.488Z,98858.06
2022-11-16T09:29:46.425Z,98854.84
2022-11-16T09:32:14.539Z,98857.75
2022-11-16T09:34:44.148Z,98857.91
2022-11-16T09:37:11.981Z,98859.66
2022-11-16T09:39:39.666Z,98856.44
2022-11-16T09:42:18.732Z,98866.34
2022-11-16T09:44:57.530Z,98860.06
2022-11-16T09:47:27.761Z,98865.63
2022-11-16T09:50:02.776Z,98865.63
2022-11-16T09:52:33.933Z,98867.97
2022-11-16T09:55:04.457Z,98862.38
2022-11-16T09:57:35.736Z,98855.50
2022-11-16T10:00:05.664Z,98862.06
2022-11-16T10:02:44.115Z,98861.56
2022-11-16T10:05:16.991Z,98857.81
2022-11-16T10:07:46.040Z,98856.66
2022-11-16T10:10:14.859Z,98866.00
2022-11-16T10:12:46.617Z,98860.63
2022-11-16T10:15:28.623Z,98870.38
2022-11-16T10:18:00.841Z,98866.25
2022-11-16T10:20:38.573Z,98868.91
2022-11-16T10:23:12.344Z,98875.09
2022-11-16T10:25:43.199Z,98869.69
2022-11-16T10:28:23.518Z,98871.19
2022-11-16T10:30:59.719Z,98865.81
2022-11-16T10:33:35.705Z,98865.50
2022-11-16T10:36:11.265Z,98866.78
2022-11-16T10:38:39.244Z,98863.34
2022-11-16T10:41:15.915Z,98853.34
2022-11-16T10:43:46.402Z,98856.13
2022-11-16T10:46:17.380Z,98855.47
2022-11-16T10:48:52.578Z,98844.69
2022-11-16T10:51:22.284Z,98847.31
2022-11-16T10:53:49.922Z,98837.97
2022-11-16T10:56:20.996Z,98838.41
2022-11-16T10:59:10.125Z,98840.34
2022-11-16T11:01:40.256Z,98836.09
2022-11-16T11:04:20.905Z,98835.94
2022-11-16T11:06:51.805Z,98834.22
2022-11-16T11:09:24.938Z,98827.66
2022-11-16T11:12:17.404Z,98825.88
2022-11-16T11:14:58.642Z,98822.91
2022-11-16T11:17:27.988Z,98823.28
2022-11-16T11:20:00.541Z,98845.16
2022-11-16T11:22:28.758Z,98847.50
2022-11-16T11:24:57.054Z,98849.56
2022-11-16T11:27:29.968Z,98861.84
2022-11-16T11:29:59.931Z,98854.63
2022-11-16T11:32:32.085Z,98859.28
2022-11-16T11:35:01.775Z,98852.47
2022-11-16T11:37:31.808Z,98842.88
2022-11-16T11:40:06.291Z,98845.41
2022-11-16T11:42:34.798Z,98841.59
2022-11-16T11:45:06.070Z,98843.06
2022-11-16T11:48:04.249Z,98835.00
2022-11-16T11:50:41.636Z,98830.41
2022-11-16T11:53:16.404Z,98827.91
2022-11-16T11:55:44.169Z,98821.44
2022-11-16T11:58:17.188Z,98821.16
2022-11-16T12:00:50.076Z,98816.00
2022-11-16T12:03:35.863Z,98816.53
2022-11-16T12:06:11.109Z,98808.94
2022-11-16T12:08:49.926Z,98811.63
2022-11-16T12:11:22.402Z,98797.69
2022-11-16T12:14:01.615Z,98791.53
2022-11-16T12:16:33.726Z,98796.34
2022-11-16T12:19:11.536Z,98806.06
2022-11-16T12:21:48.683Z,98814.72
2022-11-16T12:24:27.133Z,98824.56
2022-11-16T12:27:07.039Z,98815.81
2022-11-16T12:29:43.620Z,98812.91
2022-11-16T12:32:31.074Z,98820.00
2022-11-16T12:35:05.588Z,98801.81
2022-11-16T12:37:39.634Z,98794.59
2022-11-16T12:40:22.762Z,98786.38
2022-11-16T12:42:55.935Z,98782.69
2022-11-16T12:45:32.209Z,98787.25
2022-11-16T12:48:09.888Z,98790.41
2022-11-16T12:50:46.549Z,98779.75
2022-11-16T12:53:28.984Z,98771.38
2022-11-16T12:56:02.711Z,98773.59
2022-11-16T12:58:39.426Z,98766.38
2022-11-16T13:01:12.692Z,98762.75
2022-11-16T13:03:46.899Z,98759.97
2022-11-16T13:06:17.926Z,98748.44
2022-11-16T13:08:51.032Z,98746.19
2022-11-16T13:11:20.755Z,98747.97
2022-11-16T13:13:53.702Z,98740.56
2022-11-16T13:16:23.091Z,98736.03
2022-11-16T13:18:51.950Z,98736.75
2022-11-16T13:21:23.081Z,98732.63
2022-11-16T13:23:56.859Z,98727.09
2022-11-16T13:26:28.259Z,98731.50
2022-11-16T13:29:01.194Z,98736.97
2022-11-16T13:31:35.141Z,98748.22
2022-11-16T13:34:04.529Z,98740.91
2022-11-16T13:36:45.343Z,98726.44
2022-11-16T13:39:22.344Z,98725.81
2022-11-16T13:41:51.331Z,98711.25
2022-11-16T13:44:27.921Z,98711.91
2022-11-16T13:46:59.705Z,98701.97
2022-11-16T13:49:30.913Z,98705.19
2022-11-16T13:52:11.651Z,98693.38
2022-11-16T13:54:51.689Z,98700.22
2022-11-16T13:57:25.278Z,98705.84
2022-11-16T13:59:58.135Z,98698.44
2022-11-16T14:02:30.700Z,98692.97
2022-11-16T14:05:03.027Z,98691.09
2022-11-16T14:07:32.808Z,98682.53
2022-11-16T14:10:02.624Z,98688.13
2022-11-16T14:12:58.327Z,98683.44
2022-11-16T14:15:27.847Z,98673.53
2022-11-16T14:17:57.842Z,98680.66
2022-11-16T14:20:31.106Z,98673.47
2022-11-16T14:23:03.841Z,98678.81
2022-11-16T14:25:38.764Z,98669.69
2022-11-16T14:28:27.772Z,98681.63
2022-11-16T14:31:01.390Z,98674.78
2022-11-16T14:33:32.512Z,98672.38
2022-11-16T14:36:01.351Z,98672.28
2022-11-16T14:38:31.304Z,98671.28
2022-11-16T14:41:03.256Z,98675.03
2022-11-16T14:43:34.023Z,98663.16
2022-11-16T14:46:04.605Z,98660.56
2022-11-16T14:48:32.775Z,98668.88
2022-11-16T14:51:03.704Z,98663.66
2022-11-16T14:53:32.129Z,98668.69
2022-11-16T14:56:08.971Z,98660.34
2022-11-16T14:58:40.168Z,98656.44
2022-11-16T15:01:08.964Z,98665.91
2022-11-16T15:03:39.985Z,98661.34
2022-11-16T15:06:08.500Z,98659.72
2022-11-16T15:08:39.186Z,98658.56
2022-11-16T15:11:11.419Z,98663.78
2022-11-16T15:13:39.482Z,98653.03
2022-11-16T15:16:10.971Z,98648.31
2022-11-16T15:18:38.906Z,98653.69
2022-11-16T15:21:06.621Z,98642.03
2022-11-16T15:23:34.633Z,98640.97
2022-11-16T15:26:04.676Z,98643.41
2022-11-16T15:28:34.528Z,98645.31
2022-11-16T15:31:04.283Z,98642.16
2022-11-16T15:33:33.866Z,98641.22
2022-11-16T15:36:01.631Z,98635.06
2022-11-16T15:38:31.246Z,98631.53
2022-11-16T15:41:00.271Z,98623.81
2022-11-16T15:43:30.771Z,98621.06
2022-11-16T15:46:02.677Z,98628.16
2022-11-16T15:48:33.051Z,98635.06
2022-11-16T15:51:07.404Z,98629.94
2022-11-16T15:53:36.841Z,98625.44
2022-11-16T15:56:06.338Z,98622.81
2022-11-16T15:58:37.068Z,98615.81
2022-11-16T16:01:06.525Z,98614.19
2022-11-16T16:03:36.108Z,98617.09
2022-11-16T16:06:05.173Z,98622.34
2022-11-16T16:08:35.032Z,98625.13
2022-11-16T16:11:07.795Z,98617.09
2022-11-16T16:13:37.817Z,98621.84
2022-11-16T16:16:25.208Z,98618.25
2022-11-16T16:19:09.707Z,98620.34
2022-11-16T16:21:43.245Z,98611.03
2022-11-16T16:24:12.534Z,98609.66
2022-11-16T16:26:40.474Z,98616.16
2022-11-16T16:29:08.494Z,98607.41
2022-11-16T16:37:28.116Z,98601.66
2022-11-16T16:39:56.388Z,98605.03
2022-11-16T16:42:24.276Z,98597.69
2022-11-16T16:44:52.086Z,98599.13
2022-11-16T16:47:21.083Z,98592.72
2022-11-16T16:49:48.956Z,98599.31
2022-11-16T16:52:17.155Z,98592.41
2022-11-16T16:54:46.634Z,98586.47
2022-11-16T16:57:15.482Z,98587.25
2022-11-16T16:59:45.214Z,98584.06
2022-11-16T17:02:13.454Z,98589.28
2022-11-16T17:04:41.586Z,98580.34
2022-11-16T17:07:09.447Z,98573.84
2022-11-16T17:09:37.375Z,98576.56
2022-11-16T17:12:07.112Z,98576.13
2022-11-16T17:14:35.564Z,98576.97
2022-11-16T17:17:03.798Z,98572.44
2022-11-16T17:19:31.802Z,98566.84
2022-11-16T17:22:00.063Z,98562.25
2022-11-16T17:24:28.162Z,98558.19
2022-11-16T17:26:56.183Z,98557.88
2022-11-16T17:29:25.487Z,98554.75
2022-11-16T17:31:53.412Z,98549.50
2022-11-16T17:34:21.484Z,98543.91
2022-11-16T17:36:49.552Z,98540.47
2022-11-16T17:39:19.374Z,98543.56
2022-11-16T17:41:47.294Z,98545.03
2022-11-16T17:44:21.214Z,98538.94
2022-11-16T17:46:51.238Z,98535.66
2022-11-16T17:49:19.266Z,98536.66
2022-11-16T17:51:47.148Z,98537.25
2022-11-16T17:54:16.139Z,98527.09
2022-11-16T17:56:44.135Z,98528.75
2022-11-16T17:59:12.185Z,98527.41
2022-11-16T18:01:40.501Z,98526.19
2022-11-16T18:04:10.062Z,98527.28
2022-11-16T18:06:38.293Z,98519.03
2022-11-16T18:09:07.192Z,98526.50
2022-11-16T18:11:36.030Z,98520.50
2022-11-16T18:14:05.652Z,98520.59
2022-11-16T18:16:34.614Z,98517.97
2022-11-16T18:19:03.270Z,98515.56
2022-11-16T18:21:33.954Z,98518.38
2022-11-16T18:24:02.974Z,98520.16
2022-11-16T18:26:30.868Z,98514.28
2022-11-16T18:28:58.737Z,98515.16
2022-11-16T18:31:26.612Z,98506.25
2022-11-16T18:33:54.720Z,98498.13
2022-11-16T18:36:23.063Z,98493.25
2022-11-16T18:38:52.606Z,98488.22
2022-11-16T18:41:21.667Z,98484.09
2022-11-16T18:43:51.126Z,98481.28
2022-11-16T18:46:19.633Z,98486.47
2022-11-16T18:48:47.796Z,98476.53
2022-11-16T18:51:16.543Z,98480.44
2022-11-16T18:53:44.396Z,98485.56
2022-11-16T18:56:13.833Z,98473.88
2022-11-16T18:58:51.521Z,98478.78
2022-11-16T19:01:22.550Z,98475.53
2022-11-16T19:03:51.179Z,98462.84
2022-11-16T19:06:19.639Z,98468.56
2022-11-16T19:08:55.030Z,98464.69
2022-11-16T19:11:25.191Z,98466.63
2022-11-16T19:13:53.969Z,98460.94
2022-11-16T19:16:21.836Z,98469.31
2022-11-16T19:18:49.841Z,98467.16
2022-11-16T19:21:19.031Z,98468.66
2022-11-16T19:23:47.506Z,98465.47
2022-11-16T19:26:15.992Z,98468.84
2022-11-16T19:28:45.603Z,98469.00
2022-11-16T19:31:14.710Z,98468.16
2022-11-16T19:33:43.091Z,98467.13
2022-11-16T19:36:12.265Z,98468.16
2022-11-16T19:38:40.441Z,98459.25
2022-11-16T19:41:09.125Z,98456.66
2022-11-16T19:43:37.479Z,98453.06
2022-11-16T19:46:08.066Z,98452.59
2022-11-16T19:48:36.238Z,98458.06
2022-11-16T19:51:07.406Z,98456.19
2022-11-16T19:53:35.746Z,98453.06
2022-11-16T19:56:03.741Z,98450.72
2022-11-16T19:58:32.071Z,98447.16
2022-11-16T20:01:03.401Z,98447.75
2022-11-16T20:03:33.096Z,98454.69
2022-11-16T20:06:05.336Z,98457.00
2022-11-16T20:08:32.929Z,98451.66
2022-11-16T20:11:00.635Z,98440.59
2022-11-16T20:13:28.307Z,98453.97
2022-11-16T20:15:56.180Z,98457.84
2022-11-16T20:18:24.065Z,98450.69
2022-11-16T20:20:53.310Z,98440.13
2022-11-16T20:23:21.508Z,98441.72
2022-11-16T20:25:49.425Z,98429.25
2022-11-16T20:28:17.202Z,98416.38
2022-11-16T20:30:46.743Z,98416.03
2022-11-16T20:33:14.888Z,98412.13
2022-11-16T20:35:43.026Z,98418.63
2022-11-16T20:38:12.314Z,98409.34
2022-11-16T20:40:40.189Z,98404.97
2022-11-16T20:43:09.201Z,98406.56
2022-11-16T20:45:37.162Z,98409.28
2022-11-16T20:48:06.495Z,98406.84
2022-11-16T20:50:35.782Z,98416.91
2022-11-16T20:53:04.152Z,98412.78
2022-11-16T20:55:34.105Z,98410.41
2022-11-16T20:58:02.220Z,98416.69
2022-11-16T21:00:30.457Z,98408.28
2022-11-16T21:02:58.260Z,98409.91
2022-11-16T21:05:25.873Z,98399.50
2022-11-16T21:07:53.626Z,98393.44
2022-11-16T21:10:21.415Z,98390.50
2022-11-16T21:13:07.834Z,98387.94
2022-11-16T21:15:35.590Z,98385.75
2022-11-16T21:18:03.520Z,98384.47
2022-11-16T21:20:31.461Z,98384.19
2022-11-16T21:22:59.201Z,98376.97
2022-11-16T21:25:29.430Z,98376.78
2022-11-16T21:27:58.656Z,98375.22
2022-11-16T21:30:26.208Z,98374.84
2022-11-16T21:32:54.294Z,98369.88
2022-11-16T21:35:23.671Z,98363.41
2022-11-16T21:37:51.561Z,98369.25
2022-11-16T21:40:19.491Z,98365.84
2022-11-16T21:42:47.515Z,98365.41
2022-11-16T21:45:16.507Z,98366.97
2022-11-16T21:47:44.335Z,98370.09
2022-11-16T21:53:00.657Z,98373.34
2022-11-16T21:55:28.543Z,98358.66
2022-11-16T21:57:56.822Z,98350.63
2022-11-16T22:00:25.954Z,98353.28
2022-11-16T22:02:53.902Z,98348.31
2022-11-16T22:05:47.573Z,98347.22
2022-11-16T22:08:15.370Z,98349.22
2022-11-16T22:10:43.320Z,98349.06
2022-11-16T22:13:11.582Z,98338.00
2022-11-16T22:15:42.163Z,98334.66
2022-11-16T22:18:10.164Z,98340.81
2022-11-16T22:20:38.234Z,98339.63
2022-11-16T22:23:05.964Z,98335.69
2022-11-16T22:25:34.037Z,98337.56
2022-11-16T22:30:28.830Z,98319.81
2022-11-16T22:32:57.984Z,98314.78
2022-11-16T22:35:25.710Z,98313.13
2022-11-16T22:37:54.408Z,98312.91
2022-11-16T22:40:22.038Z,98311.00
2022-11-16T22:42:49.731Z,98314.53
2022-11-16T22:45:17.475Z,98309.16
2022-11-16T22:50:43.051Z,98302.41
2022-11-16T22:53:11.101Z,98291.97
2022-11-16T22:55:39.570Z,98287.31
2022-11-16T22:58:07.482Z,98284.81
2022-11-16T23:00:40.741Z,98282.22
2022-11-16T23:03:10.161Z,98284.00
2022-11-16T23:05:40.192Z,98275.53
2022-11-16T23:08:09.450Z,98267.31
2022-11-16T23:10:57.251Z,98268.66
2022-11-16T23:13:42.626Z,98265.13
2022-11-16T23:16:10.364Z,98263.78
2022-11-16T23:18:43.307Z,98255.97
2022-11-16T23:21:28.101Z,98248.88
2022-11-16T23:24:20.249Z,98244.44
2022-11-16T23:27:05.516Z,98249.22
2022-11-16T23:29:33.479Z,98255.97
2022-11-16T23:32:01.376Z,98253.91
2022-11-16T23:34:29.185Z,98243.63
2022-11-16T23:37:02.454Z,98240.06
2022-11-16T23:39:34.050Z,98242.78
2022-11-16T23:42:19.392Z,98234.69
2022-11-16T23:44:47.420Z,98225.59
2022-11-16T23:47:15.112Z,98229.66
2022-11-16T23:49:43.095Z,98212.31
2022-11-16T23:52:11.278Z,98204.56
2022-11-16T23:54:40.956Z,98194.09
2022-11-16T23:57:08.699Z,98188.38
2022-11-16T23:59:36.505Z,98186.66
